Last 30 Days

Smith Lane (Kelseyville-South)

Daily Data | America/Los_Angeles
as of 5/7/26 9:09 AM PDT
Date Daily Max Temp (°F) Time of Max Temp Daily Min Temp (°F) Time of Min Temp Daily Rain (In) Month Precip (In) Season Precip (In) Wind Spd (mph) Daily Max Wind (mph) Time of Max Wind Max Wind Dir (°) Dew Pt (°F) Daily Leaf Wet (Hrs) Hrs 70-85F (hrs) Hrs > 95F (hrs) Powdery Mildew Stress (pts) GDDs (DL) GDDs (Mx/Mn) Seas GDDs (DL) Seas GDDs (Smpl) Hrs <= 32F (hrs) Hrs <= 28F (hrs) Chilling <=45F (hrs) Chill Hrs 32-45F (hrs) Utah Chilling (Units) Chill Portions Degree Hrs (hrs) Max 1 Min Rain (In) Max 1 Min Rain Time Max 15 Min Rain (In) Max 15 Min Precip Time Max 60 Min Rain (In) Max 60 Min Rain Time MinBV Day (V)
5/6/26 79.9 1703 51.2 0059 0.00 0.13 24.58 2.4 14.4 1708 WSW | 246 49.7 24.0 6.92 0.00 40 13.5 15.5 248 181 0.0 0.0 0.0 0.0 -10.5 - 77.4 - - - - - - 12.7
5/5/26 70.9 1626 47.4 0531 0.00 0.13 24.58 3.8 16.6 1742 WSW | 242 50.5 24.0 1.25 0.00 20 8.3 9.2 234 165 0.0 0.0 0.0 0.0 -3.0 - 18.9 - - - - - - 12.5
5/4/26 58.8 1115 50.1 0023 0.13 0.13 24.58 2.8 13.8 1941 W | 281 48.4 24.0 0.00 0.00 30 3.9 4.5 226 156 0.0 0.0 0.0 0.0 6.0 - 0.0 0.01 2219 0.04 1323 0.09 1358 12.6
5/3/26 65.7 1505 47.1 0533 0.00 0.00 24.45 4.6 17.7 1718 SSW | 206 47.5 24.0 0.00 0.00 40 5.9 6.4 222 152 0.0 0.0 0.0 0.0 4.0 - 0.0 - - - - - - 12.6
5/2/26 78.4 1353 48.3 0415 0.00 0.00 24.45 3.6 19.4 1443 SW | 230 48.0 24.0 5.80 0.00 50 10.7 13.4 216 145 0.0 0.0 0.0 0.0 -5.0 - 60.6 - - - - - - 12.7
5/1/26 82.8 1504 44.3 0619 0.00 0.00 24.45 2.7 12.7 1652 W | 281 50.9 24.0 9.86 0.00 60 15.3 13.6 205 132 0.0 0.0 1.1 1.1 -7.5 - 134.1 - - - - - - 12.7
4/30/26 83.0 1528 40.0 0625 0.00 3.96 24.45 2.5 14.9 1720 W | 266 43.6 24.0 9.19 0.00 40 14.1 11.5 190 118 0.0 0.0 5.1 5.1 -4.5 - 125.1 - - - - - - 12.5
4/29/26 78.2 1623 39.3 0623 0.00 3.96 24.45 2.8 14.4 1539 WSW | 251 42.1 24.0 7.95 0.00 20 11.6 8.8 176 107 0.0 0.0 5.0 5.0 -2.5 88 83.9 - - - - - - 12.6
4/28/26 72.6 1550 38.1 0633 0.00 3.96 24.45 2.5 16.6 1746 WNW | 290 42.7 24.0 2.69 0.00 0 8.3 5.4 164 98 0.0 0.0 6.5 6.5 1.5 88 31.1 - - - - - - 12.6
4/27/26 66.8 1538 44.7 0054 0.00 3.96 24.45 3.3 16.6 1111 NE | 48 42.2 24.0 0.00 0.00 0 5.4 5.8 156 93 0.0 0.0 0.2 0.2 6.0 88 1.6 - - - - - - 12.7
4/26/26 60.8 1553 47.0 0616 0.00 3.96 24.45 4.3 17.7 1621 W | 261 43.2 24.0 0.00 0.00 0 2.9 3.9 150 87 0.0 0.0 0.0 0.0 10.0 87 0.0 - - - - - - 12.7
4/25/26 61.7 1423 43.4 0325 0.00 3.96 24.45 4.8 17.7 1654 SSW | 209 42.1 24.0 0.00 0.00 0 3.1 2.6 148 83 0.0 0.0 4.4 4.4 10.5 87 0.0 - - - - - - 12.7
4/24/26 72.0 1544 39.7 0641 0.00 3.96 24.45 3.3 16.0 1805 SSW | 193 44.2 24.0 3.52 0.00 0 8.5 5.8 144 80 0.0 0.0 6.3 6.3 0.5 86 33.7 - - - - - - 12.6
4/23/26 72.5 1752 35.4 0623 0.00 3.96 24.45 2.2 14.4 1832 SW | 228 43.5 22.3 3.09 0.00 0 7.6 4.0 136 75 0.0 0.0 6.8 6.8 2.5 86 27.3 - - - - - - 12.6
4/22/26 63.6 1729 42.5 0059 0.02 3.96 24.45 2.4 25.6 1321 ESE | 110 40.6 24.0 0.00 0.00 0 4.0 3.1 128 71 0.0 0.0 2.9 2.9 9.0 85 0.0 0.01 0502 0.01 0516 0.02 0545 12.7
4/21/26 58.3 1646 43.8 2349 0.30 3.94 24.43 4.1 20.5 1600 SW | 225 42.8 24.0 0.00 0.00 0 1.7 1.0 124 68 0.0 0.0 1.6 1.6 14.5 85 0.0 0.02 1346 0.07 0945 0.20 0952 12.6
4/20/26 53.3 1555 47.0 0439 0.67 3.64 24.13 2.8 14.9 1158 E | 101 46.7 24.0 0.00 0.00 0 0.6 0.2 122 67 0.0 0.0 0.0 0.0 13.5 84 0.0 0.01 0007 0.04 2132 0.09 1415 12.6
4/19/26 69.4 1401 36.8 0649 0.00 2.97 23.46 3.9 16.0 1353 SSW | 212 18.9 24.0 0.00 0.00 0 7.7 3.1 122 66 0.0 0.0 6.6 6.6 1.0 83 14.7 - - - - - - 12.6
4/18/26 74.1 1534 35.1 0641 0.00 2.97 23.46 2.9 19.4 1238 NNE | 12 39.2 24.0 5.06 0.00 0 8.9 4.6 114 63 0.0 0.0 6.7 6.7 0.5 83 45.2 - - - - - - 12.6
4/17/26 73.0 1657 32.6 0556 0.51 2.97 23.46 2.1 11.6 1843 SSW | 200 37.1 24.0 4.01 0.00 10 7.5 2.8 105 59 0.0 0.0 9.2 9.2 0.0 83 33.7 0.01 1225 0.04 0615 0.10 0647 12.6
4/16/26 66.8 1539 35.4 0643 0.00 2.46 22.95 3.2 15.5 1221 ENE | 59 29.2 24.0 0.00 0.00 20 5.5 1.1 98 56 0.0 0.0 10.1 10.1 7.0 82 2.0 - - - - - - 12.6
4/15/26 64.9 1530 36.2 0622 0.00 2.46 22.95 4.2 21.6 1613 NW | 321 42.2 24.0 0.00 0.00 30 4.2 0.5 92 55 0.0 0.0 7.7 7.7 10.0 82 0.0 - - - - - - 12.6
4/14/26 66.9 1706 36.0 0649 0.00 2.46 22.95 3.2 16.6 1455 W | 276 39.6 24.0 0.00 0.00 40 5.0 1.4 88 54 0.0 0.0 9.0 9.0 8.0 82 2.0 - - - - - - 12.6
4/13/26 64.1 1601 35.7 0423 0.40 2.46 22.95 2.8 15.5 1628 W | 275 40.9 24.0 0.00 0.00 50 3.7 0.0 83 53 0.0 0.0 9.6 9.6 11.5 81 0.0 0.01 0911 0.04 0716 0.11 0717 12.7
4/12/26 57.6 1626 38.9 0059 0.04 2.06 22.55 5.6 20.0 1327 SW | 226 37.8 24.0 0.00 0.00 60 1.1 0.0 79 53 0.0 0.0 7.6 7.6 18.0 80 0.0 0.01 1712 0.03 1714 0.03 1759 12.6
4/11/26 55.6 1354 42.4 1625 0.19 2.02 22.51 4.4 32.8 1613 SW | 215 41.9 24.0 0.00 0.00 70 0.7 0.0 78 53 0.0 0.0 8.5 8.5 16.5 79 0.0 0.01 1617 0.04 1626 0.10 1617 12.6
4/10/26 59.5 1409 47.1 0032 0.92 1.83 22.32 2.0 9.9 1405 SSE | 167 47.6 24.0 0.00 0.00 80 2.5 3.3 78 53 0.0 0.0 0.0 0.0 10.0 79 0.0 0.02 1917 0.10 1929 0.22 0807 12.6
4/9/26 70.8 1339 43.6 0452 0.00 0.91 21.40 4.2 19.4 1342 S | 178 48.2 24.0 0.23 0.00 90 8.0 7.2 75 50 0.0 0.0 3.7 3.7 0.0 78 20.0 - - - - - - 12.7
4/8/26 76.7 1246 42.8 0618 0.00 0.91 21.40 3.8 21.6 1715 S | 179 48.2 24.0 7.63 0.00 100 11.5 9.8 67 42 0.0 0.0 2.9 2.9 -4.0 78 77.1 - - - - - - 12.6
4/7/26 76.5 1606 37.0 0640 0.00 0.91 21.40 3.4 17.7 1400 SW | 227 36.8 24.0 6.95 0.00 100 10.3 6.8 56 33 0.0 0.0 6.0 6.0 -1.0 78 69.5 - - - - - - 12.6
Max 83.0 - 51.2 - 0.92 3.96 24.58 5.6 32.8 - - 50.9 24.0 9.86 0.00 - 15.3 15.5 - - 0.0 0.0 10.1 10.1 18.0 88 134.1 0.02 - 0.10 - 0.22 - 12.7
Avg - - - - - - - 3.4 - - - 42.5 - 2.47 0.00 - 6.7 5.2 - - 0.0 0.0 4.2 4.2 4.1 83 - - - - - - - -
Min 53.3 - 32.6 - 0.00 0.00 21.40 2.0 9.9 - - 18.9 22.3 0.00 0.00 - 0.6 0.0 - - 0.0 0.0 0.0 0.0 -10.5 78 0.0 0.01 - 0.01 - 0.02 - 12.5
Total - - - - - - - - - - - - - 74.14 0.00 - 202.1 154.9 - - 0.0 0.0 127.3 127.3 122.5 - - - - - - - - -